sensor_id;sensor_type;location;lat;lon;timestamp;P1;durP1;ratioP1;P2;durP2;ratioP2
7334;SDS011;3708;42.632;23.378;2023-04-24T00:00:14;5.63;;;4.03;;
7334;SDS011;3708;42.632;23.378;2023-04-24T00:02:43;8.43;;;4.57;;
7334;SDS011;3708;42.632;23.378;2023-04-24T00:05:12;8.83;;;4.43;;
7334;SDS011;3708;42.632;23.378;2023-04-24T00:07:39;7.73;;;4.50;;
7334;SDS011;3708;42.632;23.378;2023-04-24T00:10:07;8.43;;;4.50;;
7334;SDS011;3708;42.632;23.378;2023-04-24T00:12:35;7.37;;;4.77;;
7334;SDS011;3708;42.632;23.378;2023-04-24T00:15:04;6.70;;;4.80;;
7334;SDS011;3708;42.632;23.378;2023-04-24T00:17:31;5.17;;;4.40;;
7334;SDS011;3708;42.632;23.378;2023-04-24T00:19:58;7.13;;;4.80;;
7334;SDS011;3708;42.632;23.378;2023-04-24T00:22:27;6.40;;;4.20;;
7334;SDS011;3708;42.632;23.378;2023-04-24T00:24:54;7.40;;;4.97;;
7334;SDS011;3708;42.632;23.378;2023-04-24T00:27:21;8.20;;;4.50;;
7334;SDS011;3708;42.632;23.378;2023-04-24T00:29:48;5.50;;;4.57;;
7334;SDS011;3708;42.632;23.378;2023-04-24T00:32:16;7.07;;;4.37;;
7334;SDS011;3708;42.632;23.378;2023-04-24T00:34:43;8.20;;;5.00;;
7334;SDS011;3708;42.632;23.378;2023-04-24T00:37:10;8.13;;;5.10;;
7334;SDS011;3708;42.632;23.378;2023-04-24T00:39:37;5.80;;;4.57;;
7334;SDS011;3708;42.632;23.378;2023-04-24T00:42:04;5.67;;;4.90;;
7334;SDS011;3708;42.632;23.378;2023-04-24T00:44:32;7.57;;;5.30;;
7334;SDS011;3708;42.632;23.378;2023-04-24T00:46:59;10.33;;;5.43;;
7334;SDS011;3708;42.632;23.378;2023-04-24T00:49:28;6.43;;;5.07;;
7334;SDS011;3708;42.632;23.378;2023-04-24T00:51:55;7.00;;;4.77;;
7334;SDS011;3708;42.632;23.378;2023-04-24T00:54:22;5.07;;;4.53;;
7334;SDS011;3708;42.632;23.378;2023-04-24T00:56:48;7.77;;;5.07;;
7334;SDS011;3708;42.632;23.378;2023-04-24T00:59:16;9.33;;;5.43;;
7334;SDS011;3708;42.632;23.378;2023-04-24T01:01:43;9.63;;;5.20;;
7334;SDS011;3708;42.632;23.378;2023-04-24T01:04:11;8.73;;;5.90;;
7334;SDS011;3708;42.632;23.378;2023-04-24T01:06:40;6.63;;;5.37;;
7334;SDS011;3708;42.632;23.378;2023-04-24T01:09:09;10.90;;;6.83;;
7334;SDS011;3708;42.632;23.378;2023-04-24T01:11:38;9.53;;;6.17;;
7334;SDS011;3708;42.632;23.378;2023-04-24T01:14:06;8.20;;;6.60;;
7334;SDS011;3708;42.632;23.378;2023-04-24T01:16:33;9.97;;;5.53;;
7334;SDS011;3708;42.632;23.378;2023-04-24T01:19:00;8.70;;;6.53;;
7334;SDS011;3708;42.632;23.378;2023-04-24T01:21:28;8.57;;;6.57;;
7334;SDS011;3708;42.632;23.378;2023-04-24T01:24:00;10.53;;;7.30;;
7334;SDS011;3708;42.632;23.378;2023-04-24T01:26:27;9.37;;;7.30;;
7334;SDS011;3708;42.632;23.378;2023-04-24T01:28:53;16.87;;;7.50;;
7334;SDS011;3708;42.632;23.378;2023-04-24T01:31:20;9.87;;;7.10;;
7334;SDS011;3708;42.632;23.378;2023-04-24T01:33:47;13.13;;;7.37;;
7334;SDS011;3708;42.632;23.378;2023-04-24T01:36:15;12.57;;;7.40;;
7334;SDS011;3708;42.632;23.378;2023-04-24T01:38:42;12.57;;;7.60;;
7334;SDS011;3708;42.632;23.378;2023-04-24T01:41:11;10.83;;;7.77;;
7334;SDS011;3708;42.632;23.378;2023-04-24T01:43:38;14.47;;;7.20;;
7334;SDS011;3708;42.632;23.378;2023-04-24T01:46:05;9.60;;;6.77;;
7334;SDS011;3708;42.632;23.378;2023-04-24T01:48:33;12.13;;;7.10;;
7334;SDS011;3708;42.632;23.378;2023-04-24T01:51:00;10.50;;;6.77;;
7334;SDS011;3708;42.632;23.378;2023-04-24T01:53:27;8.67;;;6.30;;
7334;SDS011;3708;42.632;23.378;2023-04-24T01:55:54;14.27;;;6.87;;
7334;SDS011;3708;42.632;23.378;2023-04-24T01:58:22;11.10;;;7.17;;
7334;SDS011;3708;42.632;23.378;2023-04-24T02:00:49;13.20;;;6.93;;
7334;SDS011;3708;42.632;23.378;2023-04-24T02:03:16;7.47;;;6.43;;
7334;SDS011;3708;42.632;23.378;2023-04-24T02:05:43;15.50;;;7.37;;
7334;SDS011;3708;42.632;23.378;2023-04-24T02:08:10;10.07;;;6.97;;
7334;SDS011;3708;42.632;23.378;2023-04-24T02:10:37;9.03;;;6.73;;
7334;SDS011;3708;42.632;23.378;2023-04-24T02:13:04;10.87;;;6.90;;
7334;SDS011;3708;42.632;23.378;2023-04-24T02:15:32;8.73;;;6.57;;
7334;SDS011;3708;42.632;23.378;2023-04-24T02:17:59;8.07;;;7.10;;
7334;SDS011;3708;42.632;23.378;2023-04-24T02:20:26;10.13;;;7.63;;
7334;SDS011;3708;42.632;23.378;2023-04-24T02:22:52;11.13;;;7.53;;
7334;SDS011;3708;42.632;23.378;2023-04-24T02:25:20;12.37;;;7.83;;
7334;SDS011;3708;42.632;23.378;2023-04-24T02:27:47;10.40;;;7.50;;
7334;SDS011;3708;42.632;23.378;2023-04-24T02:30:14;10.20;;;6.80;;
7334;SDS011;3708;42.632;23.378;2023-04-24T02:32:42;11.27;;;7.07;;
7334;SDS011;3708;42.632;23.378;2023-04-24T02:35:09;10.07;;;7.20;;
7334;SDS011;3708;42.632;23.378;2023-04-24T02:37:36;10.80;;;7.77;;
7334;SDS011;3708;42.632;23.378;2023-04-24T02:40:03;11.70;;;8.30;;
7334;SDS011;3708;42.632;23.378;2023-04-24T02:42:31;12.67;;;7.10;;
7334;SDS011;3708;42.632;23.378;2023-04-24T02:44:58;11.57;;;8.23;;
7334;SDS011;3708;42.632;23.378;2023-04-24T02:47:25;9.53;;;7.30;;
7334;SDS011;3708;42.632;23.378;2023-04-24T02:49:53;9.57;;;7.30;;
7334;SDS011;3708;42.632;23.378;2023-04-24T02:52:20;9.53;;;6.67;;
7334;SDS011;3708;42.632;23.378;2023-04-24T02:54:46;14.07;;;8.00;;
7334;SDS011;3708;42.632;23.378;2023-04-24T02:57:13;13.17;;;7.13;;
7334;SDS011;3708;42.632;23.378;2023-04-24T02:59:40;13.53;;;7.30;;
7334;SDS011;3708;42.632;23.378;2023-04-24T03:02:07;10.07;;;8.50;;
7334;SDS011;3708;42.632;23.378;2023-04-24T03:04:34;12.17;;;8.30;;
7334;SDS011;3708;42.632;23.378;2023-04-24T03:07:02;13.57;;;8.13;;
7334;SDS011;3708;42.632;23.378;2023-04-24T03:09:29;12.03;;;7.10;;
7334;SDS011;3708;42.632;23.378;2023-04-24T03:11:56;10.47;;;7.00;;
7334;SDS011;3708;42.632;23.378;2023-04-24T03:14:23;9.43;;;6.23;;
7334;SDS011;3708;42.632;23.378;2023-04-24T03:16:50;9.23;;;6.27;;
7334;SDS011;3708;42.632;23.378;2023-04-24T03:19:17;15.73;;;7.13;;
7334;SDS011;3708;42.632;23.378;2023-04-24T03:21:43;14.87;;;6.97;;
7334;SDS011;3708;42.632;23.378;2023-04-24T03:24:12;9.53;;;6.37;;
7334;SDS011;3708;42.632;23.378;2023-04-24T03:26:38;15.30;;;7.53;;
7334;SDS011;3708;42.632;23.378;2023-04-24T03:29:05;8.87;;;6.87;;
7334;SDS011;3708;42.632;23.378;2023-04-24T03:31:32;12.70;;;7.33;;
7334;SDS011;3708;42.632;23.378;2023-04-24T03:33:59;16.47;;;8.83;;
7334;SDS011;3708;42.632;23.378;2023-04-24T03:36:26;11.50;;;8.03;;
7334;SDS011;3708;42.632;23.378;2023-04-24T03:38:53;11.03;;;8.63;;
7334;SDS011;3708;42.632;23.378;2023-04-24T03:41:21;12.27;;;8.37;;
7334;SDS011;3708;42.632;23.378;2023-04-24T03:43:48;14.07;;;8.57;;
7334;SDS011;3708;42.632;23.378;2023-04-24T03:46:15;11.37;;;8.43;;
7334;SDS011;3708;42.632;23.378;2023-04-24T03:48:42;13.07;;;9.70;;
7334;SDS011;3708;42.632;23.378;2023-04-24T03:51:09;12.97;;;8.57;;
7334;SDS011;3708;42.632;23.378;2023-04-24T03:53:36;13.17;;;9.60;;
7334;SDS011;3708;42.632;23.378;2023-04-24T03:56:03;12.70;;;9.57;;
7334;SDS011;3708;42.632;23.378;2023-04-24T03:58:31;11.90;;;10.10;;
7334;SDS011;3708;42.632;23.378;2023-04-24T04:00:58;13.53;;;9.27;;
7334;SDS011;3708;42.632;23.378;2023-04-24T04:03:25;16.60;;;9.67;;
7334;SDS011;3708;42.632;23.378;2023-04-24T04:05:52;11.87;;;8.83;;
7334;SDS011;3708;42.632;23.378;2023-04-24T04:08:19;14.10;;;8.80;;
7334;SDS011;3708;42.632;23.378;2023-04-24T04:10:46;10.87;;;8.47;;
7334;SDS011;3708;42.632;23.378;2023-04-24T04:13:13;14.97;;;9.30;;
7334;SDS011;3708;42.632;23.378;2023-04-24T04:15:41;13.23;;;9.40;;
7334;SDS011;3708;42.632;23.378;2023-04-24T04:18:09;11.20;;;9.17;;
7334;SDS011;3708;42.632;23.378;2023-04-24T04:20:35;13.97;;;8.87;;
7334;SDS011;3708;42.632;23.378;2023-04-24T04:23:02;12.40;;;9.27;;
7334;SDS011;3708;42.632;23.378;2023-04-24T04:25:29;12.60;;;8.57;;
7334;SDS011;3708;42.632;23.378;2023-04-24T04:27:56;12.73;;;8.17;;
7334;SDS011;3708;42.632;23.378;2023-04-24T04:30:24;12.53;;;8.70;;
7334;SDS011;3708;42.632;23.378;2023-04-24T04:32:53;17.77;;;8.70;;
7334;SDS011;3708;42.632;23.378;2023-04-24T04:35:20;13.37;;;7.70;;
7334;SDS011;3708;42.632;23.378;2023-04-24T04:37:47;16.97;;;8.33;;
7334;SDS011;3708;42.632;23.378;2023-04-24T04:40:14;21.30;;;8.77;;
7334;SDS011;3708;42.632;23.378;2023-04-24T04:42:40;12.07;;;8.70;;
7334;SDS011;3708;42.632;23.378;2023-04-24T04:45:07;10.90;;;7.57;;
7334;SDS011;3708;42.632;23.378;2023-04-24T04:47:36;16.23;;;8.17;;
7334;SDS011;3708;42.632;23.378;2023-04-24T04:50:22;14.37;;;7.97;;
7334;SDS011;3708;42.632;23.378;2023-04-24T04:52:49;11.17;;;8.37;;
7334;SDS011;3708;42.632;23.378;2023-04-24T04:55:16;11.53;;;7.90;;
7334;SDS011;3708;42.632;23.378;2023-04-24T04:57:43;13.60;;;8.47;;
7334;SDS011;3708;42.632;23.378;2023-04-24T05:00:10;19.37;;;8.97;;
7334;SDS011;3708;42.632;23.378;2023-04-24T05:02:38;21.27;;;10.73;;
7334;SDS011;3708;42.632;23.378;2023-04-24T05:05:06;15.67;;;9.53;;
7334;SDS011;3708;42.632;23.378;2023-04-24T05:07:35;13.70;;;8.47;;
7334;SDS011;3708;42.632;23.378;2023-04-24T05:10:02;11.87;;;9.20;;
7334;SDS011;3708;42.632;23.378;2023-04-24T05:12:29;12.77;;;8.30;;
7334;SDS011;3708;42.632;23.378;2023-04-24T05:14:56;14.27;;;9.07;;
7334;SDS011;3708;42.632;23.378;2023-04-24T05:17:23;17.33;;;8.70;;
7334;SDS011;3708;42.632;23.378;2023-04-24T05:19:50;14.73;;;8.63;;
7334;SDS011;3708;42.632;23.378;2023-04-24T05:22:16;14.63;;;9.37;;
7334;SDS011;3708;42.632;23.378;2023-04-24T05:24:47;16.30;;;9.30;;
7334;SDS011;3708;42.632;23.378;2023-04-24T05:27:14;10.50;;;8.63;;
7334;SDS011;3708;42.632;23.378;2023-04-24T05:29:41;19.50;;;9.17;;
7334;SDS011;3708;42.632;23.378;2023-04-24T05:32:08;13.07;;;8.23;;
7334;SDS011;3708;42.632;23.378;2023-04-24T05:34:35;12.67;;;8.87;;
7334;SDS011;3708;42.632;23.378;2023-04-24T05:37:02;11.47;;;8.67;;
7334;SDS011;3708;42.632;23.378;2023-04-24T05:39:33;13.77;;;9.37;;
7334;SDS011;3708;42.632;23.378;2023-04-24T05:42:02;14.03;;;8.30;;
7334;SDS011;3708;42.632;23.378;2023-04-24T05:44:29;14.53;;;8.90;;
7334;SDS011;3708;42.632;23.378;2023-04-24T05:46:56;14.17;;;8.53;;
7334;SDS011;3708;42.632;23.378;2023-04-24T05:49:23;17.40;;;8.00;;
7334;SDS011;3708;42.632;23.378;2023-04-24T05:51:50;15.97;;;9.27;;
7334;SDS011;3708;42.632;23.378;2023-04-24T05:54:17;15.67;;;8.50;;
7334;SDS011;3708;42.632;23.378;2023-04-24T05:56:43;13.73;;;8.50;;
7334;SDS011;3708;42.632;23.378;2023-04-24T05:59:12;15.77;;;8.53;;
7334;SDS011;3708;42.632;23.378;2023-04-24T06:01:39;17.77;;;9.63;;
7334;SDS011;3708;42.632;23.378;2023-04-24T06:04:07;13.73;;;9.70;;
7334;SDS011;3708;42.632;23.378;2023-04-24T06:06:34;15.63;;;9.60;;
7334;SDS011;3708;42.632;23.378;2023-04-24T06:09:01;12.37;;;8.30;;
7334;SDS011;3708;42.632;23.378;2023-04-24T06:11:29;21.87;;;9.90;;
7334;SDS011;3708;42.632;23.378;2023-04-24T06:13:56;17.27;;;8.30;;
7334;SDS011;3708;42.632;23.378;2023-04-24T06:16:25;18.47;;;9.33;;
7334;SDS011;3708;42.632;23.378;2023-04-24T06:18:52;16.57;;;7.83;;
7334;SDS011;3708;42.632;23.378;2023-04-24T06:21:20;11.93;;;7.67;;
7334;SDS011;3708;42.632;23.378;2023-04-24T06:23:47;22.83;;;8.60;;
7334;SDS011;3708;42.632;23.378;2023-04-24T06:26:14;14.63;;;7.67;;
7334;SDS011;3708;42.632;23.378;2023-04-24T06:28:41;13.07;;;7.37;;
7334;SDS011;3708;42.632;23.378;2023-04-24T06:31:08;13.20;;;7.40;;
7334;SDS011;3708;42.632;23.378;2023-04-24T06:33:38;15.20;;;8.33;;
7334;SDS011;3708;42.632;23.378;2023-04-24T06:36:05;15.30;;;7.80;;
7334;SDS011;3708;42.632;23.378;2023-04-24T06:38:32;13.53;;;7.53;;
7334;SDS011;3708;42.632;23.378;2023-04-24T06:40:59;10.97;;;7.77;;
7334;SDS011;3708;42.632;23.378;2023-04-24T06:43:28;12.90;;;8.13;;
7334;SDS011;3708;42.632;23.378;2023-04-24T06:45:55;14.93;;;9.07;;
7334;SDS011;3708;42.632;23.378;2023-04-24T06:48:25;11.40;;;7.47;;
7334;SDS011;3708;42.632;23.378;2023-04-24T06:50:53;23.67;;;12.73;;
7334;SDS011;3708;42.632;23.378;2023-04-24T06:53:20;18.83;;;8.43;;
7334;SDS011;3708;42.632;23.378;2023-04-24T06:55:46;18.83;;;7.27;;
7334;SDS011;3708;42.632;23.378;2023-04-24T06:58:13;12.00;;;7.10;;
7334;SDS011;3708;42.632;23.378;2023-04-24T07:00:41;11.53;;;7.17;;
7334;SDS011;3708;42.632;23.378;2023-04-24T07:03:09;12.17;;;7.13;;
7334;SDS011;3708;42.632;23.378;2023-04-24T07:05:36;11.27;;;6.93;;
7334;SDS011;3708;42.632;23.378;2023-04-24T07:08:06;9.57;;;6.57;;
7334;SDS011;3708;42.632;23.378;2023-04-24T07:10:33;13.93;;;7.00;;
7334;SDS011;3708;42.632;23.378;2023-04-24T07:13:03;9.90;;;6.77;;
7334;SDS011;3708;42.632;23.378;2023-04-24T07:15:32;13.40;;;6.27;;
7334;SDS011;3708;42.632;23.378;2023-04-24T07:17:59;23.80;;;7.33;;
7334;SDS011;3708;42.632;23.378;2023-04-24T07:20:27;11.57;;;7.37;;
7334;SDS011;3708;42.632;23.378;2023-04-24T07:22:54;10.83;;;7.33;;
7334;SDS011;3708;42.632;23.378;2023-04-24T07:25:22;15.77;;;7.77;;
7334;SDS011;3708;42.632;23.378;2023-04-24T07:27:49;20.33;;;7.57;;
7334;SDS011;3708;42.632;23.378;2023-04-24T07:30:16;13.70;;;6.70;;
7334;SDS011;3708;42.632;23.378;2023-04-24T07:32:43;14.10;;;6.93;;
7334;SDS011;3708;42.632;23.378;2023-04-24T07:35:09;11.03;;;7.87;;
7334;SDS011;3708;42.632;23.378;2023-04-24T07:37:36;9.07;;;7.17;;
7334;SDS011;3708;42.632;23.378;2023-04-24T07:40:03;10.97;;;6.90;;
7334;SDS011;3708;42.632;23.378;2023-04-24T07:42:32;14.60;;;6.63;;
7334;SDS011;3708;42.632;23.378;2023-04-24T07:45:01;11.03;;;6.70;;
7334;SDS011;3708;42.632;23.378;2023-04-24T07:47:28;10.10;;;6.77;;
7334;SDS011;3708;42.632;23.378;2023-04-24T07:49:55;13.40;;;7.17;;
7334;SDS011;3708;42.632;23.378;2023-04-24T07:52:22;12.87;;;6.97;;
7334;SDS011;3708;42.632;23.378;2023-04-24T07:54:49;9.93;;;7.13;;
7334;SDS011;3708;42.632;23.378;2023-04-24T07:57:17;11.47;;;7.00;;
7334;SDS011;3708;42.632;23.378;2023-04-24T07:59:46;8.20;;;6.33;;
7334;SDS011;3708;42.632;23.378;2023-04-24T08:02:13;12.73;;;6.27;;
7334;SDS011;3708;42.632;23.378;2023-04-24T08:04:39;9.60;;;5.83;;
7334;SDS011;3708;42.632;23.378;2023-04-24T08:07:06;10.20;;;5.67;;
7334;SDS011;3708;42.632;23.378;2023-04-24T08:09:33;10.77;;;5.57;;
7334;SDS011;3708;42.632;23.378;2023-04-24T08:12:00;13.97;;;5.77;;
7334;SDS011;3708;42.632;23.378;2023-04-24T08:14:27;14.60;;;6.50;;
7334;SDS011;3708;42.632;23.378;2023-04-24T08:16:55;10.80;;;6.27;;
7334;SDS011;3708;42.632;23.378;2023-04-24T08:19:24;11.90;;;5.80;;
7334;SDS011;3708;42.632;23.378;2023-04-24T08:21:51;11.67;;;5.97;;
7334;SDS011;3708;42.632;23.378;2023-04-24T08:24:18;11.77;;;5.33;;
7334;SDS011;3708;42.632;23.378;2023-04-24T08:26:45;8.50;;;5.83;;
7334;SDS011;3708;42.632;23.378;2023-04-24T08:29:15;10.30;;;5.57;;
7334;SDS011;3708;42.632;23.378;2023-04-24T08:31:42;8.23;;;5.20;;
7334;SDS011;3708;42.632;23.378;2023-04-24T08:34:10;11.07;;;5.57;;
7334;SDS011;3708;42.632;23.378;2023-04-24T08:36:37;9.20;;;5.60;;
7334;SDS011;3708;42.632;23.378;2023-04-24T08:39:05;7.67;;;5.30;;
7334;SDS011;3708;42.632;23.378;2023-04-24T08:41:32;10.20;;;5.57;;
7334;SDS011;3708;42.632;23.378;2023-04-24T08:44:01;8.17;;;5.10;;
7334;SDS011;3708;42.632;23.378;2023-04-24T08:46:28;7.57;;;5.90;;
7334;SDS011;3708;42.632;23.378;2023-04-24T08:48:56;9.07;;;5.80;;
7334;SDS011;3708;42.632;23.378;2023-04-24T08:51:26;10.80;;;5.70;;
7334;SDS011;3708;42.632;23.378;2023-04-24T08:53:53;7.50;;;5.10;;
7334;SDS011;3708;42.632;23.378;2023-04-24T08:56:21;8.50;;;4.60;;
7334;SDS011;3708;42.632;23.378;2023-04-24T08:58:50;8.97;;;5.67;;
7334;SDS011;3708;42.632;23.378;2023-04-24T09:01:17;10.17;;;5.83;;
7334;SDS011;3708;42.632;23.378;2023-04-24T09:03:46;9.93;;;5.73;;
7334;SDS011;3708;42.632;23.378;2023-04-24T09:06:15;14.60;;;5.30;;
7334;SDS011;3708;42.632;23.378;2023-04-24T09:08:45;10.97;;;5.40;;
7334;SDS011;3708;42.632;23.378;2023-04-24T09:11:14;9.57;;;5.63;;
7334;SDS011;3708;42.632;23.378;2023-04-24T09:13:41;6.10;;;5.03;;
7334;SDS011;3708;42.632;23.378;2023-04-24T09:16:09;8.57;;;5.27;;
7334;SDS011;3708;42.632;23.378;2023-04-24T09:18:36;6.33;;;4.73;;
7334;SDS011;3708;42.632;23.378;2023-04-24T09:21:03;10.73;;;4.93;;
7334;SDS011;3708;42.632;23.378;2023-04-24T09:23:33;7.10;;;4.87;;
7334;SDS011;3708;42.632;23.378;2023-04-24T09:26:02;12.43;;;5.13;;
7334;SDS011;3708;42.632;23.378;2023-04-24T09:28:31;7.68;;;4.70;;
7334;SDS011;3708;42.632;23.378;2023-04-24T09:31:04;7.32;;;5.22;;
7334;SDS011;3708;42.632;23.378;2023-04-24T09:33:32;10.03;;;4.70;;
7334;SDS011;3708;42.632;23.378;2023-04-24T09:35:59;7.25;;;4.30;;
7334;SDS011;3708;42.632;23.378;2023-04-24T09:38:30;9.00;;;4.88;;
7334;SDS011;3708;42.632;23.378;2023-04-24T09:40:59;12.05;;;5.32;;
7334;SDS011;3708;42.632;23.378;2023-04-24T09:43:28;6.55;;;4.50;;
7334;SDS011;3708;42.632;23.378;2023-04-24T09:45:55;5.57;;;4.72;;
7334;SDS011;3708;42.632;23.378;2023-04-24T09:48:30;6.25;;;4.82;;
7334;SDS011;3708;42.632;23.378;2023-04-24T09:50:58;5.07;;;4.03;;
7334;SDS011;3708;42.632;23.378;2023-04-24T09:53:25;8.68;;;4.35;;
7334;SDS011;3708;42.632;23.378;2023-04-24T09:55:53;9.77;;;4.40;;
7334;SDS011;3708;42.632;23.378;2023-04-24T09:58:24;8.38;;;4.03;;
7334;SDS011;3708;42.632;23.378;2023-04-24T10:00:54;4.70;;;4.15;;
7334;SDS011;3708;42.632;23.378;2023-04-24T10:03:23;5.03;;;4.53;;
7334;SDS011;3708;42.632;23.378;2023-04-24T10:05:52;10.55;;;4.30;;
7334;SDS011;3708;42.632;23.378;2023-04-24T10:08:19;10.43;;;4.15;;
7334;SDS011;3708;42.632;23.378;2023-04-24T10:10:47;9.75;;;4.97;;
7334;SDS011;3708;42.632;23.378;2023-04-24T10:13:14;6.93;;;4.35;;
7334;SDS011;3708;42.632;23.378;2023-04-24T10:15:41;8.75;;;4.13;;
7334;SDS011;3708;42.632;23.378;2023-04-24T10:18:10;7.72;;;4.18;;
7334;SDS011;3708;42.632;23.378;2023-04-24T10:20:38;6.88;;;4.30;;
7334;SDS011;3708;42.632;23.378;2023-04-24T10:23:06;6.28;;;4.38;;
7334;SDS011;3708;42.632;23.378;2023-04-24T10:25:34;7.03;;;4.20;;
7334;SDS011;3708;42.632;23.378;2023-04-24T10:28:03;6.50;;;4.50;;
7334;SDS011;3708;42.632;23.378;2023-04-24T10:30:34;5.57;;;3.92;;
7334;SDS011;3708;42.632;23.378;2023-04-24T10:33:01;7.20;;;4.03;;
7334;SDS011;3708;42.632;23.378;2023-04-24T10:35:31;13.32;;;3.97;;
7334;SDS011;3708;42.632;23.378;2023-04-24T10:37:59;4.38;;;3.88;;
7334;SDS011;3708;42.632;23.378;2023-04-24T10:40:32;5.35;;;3.78;;
7334;SDS011;3708;42.632;23.378;2023-04-24T10:43:01;5.28;;;4.00;;
7334;SDS011;3708;42.632;23.378;2023-04-24T10:45:31;5.35;;;3.80;;
7334;SDS011;3708;42.632;23.378;2023-04-24T10:47:58;6.22;;;3.85;;
7334;SDS011;3708;42.632;23.378;2023-04-24T10:50:26;7.70;;;4.00;;
7334;SDS011;3708;42.632;23.378;2023-04-24T10:53:04;4.78;;;3.63;;
7334;SDS011;3708;42.632;23.378;2023-04-24T10:55:42;7.68;;;3.45;;
7334;SDS011;3708;42.632;23.378;2023-04-24T10:58:10;4.18;;;3.78;;
7334;SDS011;3708;42.632;23.378;2023-04-24T11:00:38;8.02;;;3.70;;
7334;SDS011;3708;42.632;23.378;2023-04-24T11:03:06;5.07;;;3.42;;
7334;SDS011;3708;42.632;23.378;2023-04-24T11:05:52;8.77;;;4.10;;
7334;SDS011;3708;42.632;23.378;2023-04-24T11:08:37;7.72;;;3.70;;
7334;SDS011;3708;42.632;23.378;2023-04-24T11:11:08;4.55;;;3.40;;
7334;SDS011;3708;42.632;23.378;2023-04-24T11:16:33;6.18;;;4.20;;
7334;SDS011;3708;42.632;23.378;2023-04-24T11:19:04;5.90;;;3.38;;
7334;SDS011;3708;42.632;23.378;2023-04-24T11:21:39;6.93;;;3.63;;
7334;SDS011;3708;42.632;23.378;2023-04-24T11:24:27;9.20;;;4.00;;
7334;SDS011;3708;42.632;23.378;2023-04-24T11:26:59;9.00;;;3.83;;
7334;SDS011;3708;42.632;23.378;2023-04-24T11:29:38;6.03;;;4.17;;
7334;SDS011;3708;42.632;23.378;2023-04-24T11:32:23;6.13;;;3.90;;
7334;SDS011;3708;42.632;23.378;2023-04-24T11:34:52;8.67;;;3.87;;
7334;SDS011;3708;42.632;23.378;2023-04-24T11:37:21;9.13;;;3.33;;
7334;SDS011;3708;42.632;23.378;2023-04-24T11:39:51;10.67;;;3.27;;
7334;SDS011;3708;42.632;23.378;2023-04-24T11:42:19;7.27;;;3.17;;
7334;SDS011;3708;42.632;23.378;2023-04-24T11:44:47;8.43;;;2.60;;
7334;SDS011;3708;42.632;23.378;2023-04-24T11:47:15;6.47;;;3.00;;
7334;SDS011;3708;42.632;23.378;2023-04-24T11:49:42;4.50;;;2.77;;
7334;SDS011;3708;42.632;23.378;2023-04-24T11:52:09;3.63;;;2.80;;
7334;SDS011;3708;42.632;23.378;2023-04-24T11:54:36;5.57;;;3.10;;
7334;SDS011;3708;42.632;23.378;2023-04-24T11:57:06;2.93;;;2.67;;
7334;SDS011;3708;42.632;23.378;2023-04-24T11:59:36;3.20;;;2.83;;
7334;SDS011;3708;42.632;23.378;2023-04-24T12:02:03;5.00;;;3.30;;
7334;SDS011;3708;42.632;23.378;2023-04-24T12:04:38;3.87;;;3.00;;
7334;SDS011;3708;42.632;23.378;2023-04-24T12:07:05;4.17;;;3.63;;
7334;SDS011;3708;42.632;23.378;2023-04-24T12:09:43;7.10;;;3.50;;
7334;SDS011;3708;42.632;23.378;2023-04-24T12:12:12;6.67;;;3.97;;
7334;SDS011;3708;42.632;23.378;2023-04-24T12:17:25;5.17;;;4.00;;
7334;SDS011;3708;42.632;23.378;2023-04-24T12:19:57;5.87;;;3.80;;
7334;SDS011;3708;42.632;23.378;2023-04-24T12:22:25;4.93;;;4.00;;
7334;SDS011;3708;42.632;23.378;2023-04-24T12:24:55;6.03;;;3.80;;
7334;SDS011;3708;42.632;23.378;2023-04-24T12:27:24;7.77;;;4.33;;
7334;SDS011;3708;42.632;23.378;2023-04-24T12:29:52;3.63;;;3.20;;
7334;SDS011;3708;42.632;23.378;2023-04-24T12:32:19;4.50;;;3.60;;
7334;SDS011;3708;42.632;23.378;2023-04-24T12:34:46;4.23;;;3.30;;
7334;SDS011;3708;42.632;23.378;2023-04-24T12:37:13;8.43;;;3.30;;
7334;SDS011;3708;42.632;23.378;2023-04-24T12:39:44;3.90;;;3.50;;
7334;SDS011;3708;42.632;23.378;2023-04-24T12:42:26;4.83;;;3.30;;
7334;SDS011;3708;42.632;23.378;2023-04-24T12:44:56;3.77;;;3.10;;
7334;SDS011;3708;42.632;23.378;2023-04-24T12:47:24;3.50;;;3.20;;
7334;SDS011;3708;42.632;23.378;2023-04-24T12:49:51;5.50;;;3.77;;
7334;SDS011;3708;42.632;23.378;2023-04-24T12:52:20;6.87;;;3.90;;
7334;SDS011;3708;42.632;23.378;2023-04-24T12:54:47;4.70;;;3.33;;
7334;SDS011;3708;42.632;23.378;2023-04-24T12:57:14;3.90;;;3.50;;
7334;SDS011;3708;42.632;23.378;2023-04-24T12:59:42;5.37;;;3.80;;
7334;SDS011;3708;42.632;23.378;2023-04-24T13:02:09;5.07;;;4.27;;
7334;SDS011;3708;42.632;23.378;2023-04-24T13:04:36;7.17;;;4.37;;
7334;SDS011;3708;42.632;23.378;2023-04-24T13:07:03;5.20;;;4.37;;
7334;SDS011;3708;42.632;23.378;2023-04-24T13:09:29;6.53;;;3.67;;
7334;SDS011;3708;42.632;23.378;2023-04-24T13:11:57;6.27;;;3.83;;
7334;SDS011;3708;42.632;23.378;2023-04-24T13:14:23;7.27;;;3.77;;
7334;SDS011;3708;42.632;23.378;2023-04-24T13:16:52;5.73;;;4.17;;
7334;SDS011;3708;42.632;23.378;2023-04-24T13:19:19;6.20;;;4.40;;
7334;SDS011;3708;42.632;23.378;2023-04-24T13:21:45;8.37;;;4.10;;
7334;SDS011;3708;42.632;23.378;2023-04-24T13:24:12;4.57;;;3.83;;
7334;SDS011;3708;42.632;23.378;2023-04-24T13:26:40;7.27;;;3.90;;
7334;SDS011;3708;42.632;23.378;2023-04-24T13:29:07;4.73;;;4.07;;
7334;SDS011;3708;42.632;23.378;2023-04-24T13:31:34;6.67;;;4.00;;
7334;SDS011;3708;42.632;23.378;2023-04-24T13:34:10;7.07;;;4.13;;
7334;SDS011;3708;42.632;23.378;2023-04-24T13:36:36;5.80;;;4.17;;
7334;SDS011;3708;42.632;23.378;2023-04-24T13:39:03;10.03;;;3.87;;
7334;SDS011;3708;42.632;23.378;2023-04-24T13:41:32;8.15;;;4.15;;
7334;SDS011;3708;42.632;23.378;2023-04-24T13:44:00;6.07;;;3.40;;
7334;SDS011;3708;42.632;23.378;2023-04-24T13:46:27;9.93;;;4.07;;
7334;SDS011;3708;42.632;23.378;2023-04-24T13:48:54;4.63;;;3.50;;
7334;SDS011;3708;42.632;23.378;2023-04-24T13:51:25;7.72;;;4.28;;
7334;SDS011;3708;42.632;23.378;2023-04-24T13:53:53;4.03;;;3.42;;
7334;SDS011;3708;42.632;23.378;2023-04-24T13:56:20;6.75;;;3.15;;
7334;SDS011;3708;42.632;23.378;2023-04-24T13:58:47;6.13;;;3.63;;
7334;SDS011;3708;42.632;23.378;2023-04-24T14:01:14;3.88;;;3.30;;
7334;SDS011;3708;42.632;23.378;2023-04-24T14:03:42;4.18;;;3.42;;
7334;SDS011;3708;42.632;23.378;2023-04-24T14:06:09;10.38;;;4.15;;
7334;SDS011;3708;42.632;23.378;2023-04-24T14:08:37;4.75;;;3.47;;
7334;SDS011;3708;42.632;23.378;2023-04-24T14:11:04;5.43;;;3.08;;
7334;SDS011;3708;42.632;23.378;2023-04-24T14:13:30;5.85;;;3.63;;
7334;SDS011;3708;42.632;23.378;2023-04-24T14:15:58;4.38;;;3.30;;
7334;SDS011;3708;42.632;23.378;2023-04-24T14:18:25;7.90;;;3.80;;
7334;SDS011;3708;42.632;23.378;2023-04-24T14:20:51;9.93;;;3.90;;
7334;SDS011;3708;42.632;23.378;2023-04-24T14:23:18;5.05;;;3.50;;
7334;SDS011;3708;42.632;23.378;2023-04-24T14:25:47;7.22;;;3.40;;
7334;SDS011;3708;42.632;23.378;2023-04-24T14:28:16;6.30;;;3.33;;
7334;SDS011;3708;42.632;23.378;2023-04-24T14:30:44;3.95;;;2.80;;
7334;SDS011;3708;42.632;23.378;2023-04-24T14:33:11;7.05;;;2.65;;
7334;SDS011;3708;42.632;23.378;2023-04-24T14:35:38;3.65;;;2.60;;
7334;SDS011;3708;42.632;23.378;2023-04-24T14:38:07;3.28;;;2.65;;
7334;SDS011;3708;42.632;23.378;2023-04-24T14:40:34;3.17;;;2.58;;
7334;SDS011;3708;42.632;23.378;2023-04-24T14:43:02;4.03;;;3.03;;
7334;SDS011;3708;42.632;23.378;2023-04-24T14:45:29;8.40;;;3.00;;
7334;SDS011;3708;42.632;23.378;2023-04-24T14:47:57;4.03;;;3.20;;
7334;SDS011;3708;42.632;23.378;2023-04-24T14:50:24;6.03;;;3.08;;
7334;SDS011;3708;42.632;23.378;2023-04-24T14:52:53;5.20;;;3.00;;
7334;SDS011;3708;42.632;23.378;2023-04-24T14:55:22;4.10;;;3.05;;
7334;SDS011;3708;42.632;23.378;2023-04-24T14:57:49;5.03;;;3.70;;
7334;SDS011;3708;42.632;23.378;2023-04-24T15:00:18;5.78;;;3.53;;
7334;SDS011;3708;42.632;23.378;2023-04-24T15:02:45;3.85;;;3.35;;
7334;SDS011;3708;42.632;23.378;2023-04-24T15:05:12;3.75;;;3.35;;